sensor_id;sensor_type;location;lat;lon;timestamp;temperature;humidity
24410;DHT22;12543;53.364;-1.504;2023-04-16T00:02:00;9.50;99.90
24410;DHT22;12543;53.364;-1.504;2023-04-16T00:04:27;9.50;99.90
24410;DHT22;12543;53.364;-1.504;2023-04-16T00:06:55;9.50;99.90
24410;DHT22;12543;53.364;-1.504;2023-04-16T00:09:24;9.50;99.90
24410;DHT22;12543;53.364;-1.504;2023-04-16T00:11:51;9.50;99.90
24410;DHT22;12543;53.364;-1.504;2023-04-16T00:14:17;9.50;99.90
24410;DHT22;12543;53.364;-1.504;2023-04-16T00:16:45;9.40;99.90
24410;DHT22;12543;53.364;-1.504;2023-04-16T00:19:12;9.40;99.90
24410;DHT22;12543;53.364;-1.504;2023-04-16T00:21:39;9.40;99.90
24410;DHT22;12543;53.364;-1.504;2023-04-16T00:24:06;9.40;99.90
24410;DHT22;12543;53.364;-1.504;2023-04-16T00:26:33;9.40;99.90
24410;DHT22;12543;53.364;-1.504;2023-04-16T00:29:00;9.40;99.90
24410;DHT22;12543;53.364;-1.504;2023-04-16T00:31:28;9.40;99.90
24410;DHT22;12543;53.364;-1.504;2023-04-16T00:33:56;9.30;99.90
24410;DHT22;12543;53.364;-1.504;2023-04-16T00:36:23;9.30;99.90
24410;DHT22;12543;53.364;-1.504;2023-04-16T00:38:51;9.30;99.90
24410;DHT22;12543;53.364;-1.504;2023-04-16T00:41:18;9.30;99.90
24410;DHT22;12543;53.364;-1.504;2023-04-16T00:43:45;9.30;99.90
24410;DHT22;12543;53.364;-1.504;2023-04-16T00:46:12;9.30;99.90
24410;DHT22;12543;53.364;-1.504;2023-04-16T00:48:39;9.30;99.90
24410;DHT22;12543;53.364;-1.504;2023-04-16T00:51:10;9.30;99.90
24410;DHT22;12543;53.364;-1.504;2023-04-16T00:53:37;9.40;99.90
24410;DHT22;12543;53.364;-1.504;2023-04-16T00:56:05;9.40;99.90
24410;DHT22;12543;53.364;-1.504;2023-04-16T00:58:33;9.40;99.90
24410;DHT22;12543;53.364;-1.504;2023-04-16T01:01:00;9.40;99.90
24410;DHT22;12543;53.364;-1.504;2023-04-16T01:03:31;9.30;99.90
24410;DHT22;12543;53.364;-1.504;2023-04-16T01:06:00;9.30;99.90
24410;DHT22;12543;53.364;-1.504;2023-04-16T01:08:28;9.40;99.90
24410;DHT22;12543;53.364;-1.504;2023-04-16T01:10:55;9.30;99.90
24410;DHT22;12543;53.364;-1.504;2023-04-16T01:13:22;9.40;99.90
24410;DHT22;12543;53.364;-1.504;2023-04-16T01:15:49;9.30;99.90
24410;DHT22;12543;53.364;-1.504;2023-04-16T01:18:16;9.30;99.90
24410;DHT22;12543;53.364;-1.504;2023-04-16T01:20:44;9.30;99.90
24410;DHT22;12543;53.364;-1.504;2023-04-16T01:23:11;9.30;99.90
24410;DHT22;12543;53.364;-1.504;2023-04-16T01:25:38;9.30;99.90
24410;DHT22;12543;53.364;-1.504;2023-04-16T01:28:05;9.30;99.90
24410;DHT22;12543;53.364;-1.504;2023-04-16T01:30:32;9.30;99.90
24410;DHT22;12543;53.364;-1.504;2023-04-16T01:33:13;9.30;99.90
24410;DHT22;12543;53.364;-1.504;2023-04-16T01:35:40;9.30;99.90
24410;DHT22;12543;53.364;-1.504;2023-04-16T01:38:09;9.30;99.90
24410;DHT22;12543;53.364;-1.504;2023-04-16T01:40:45;9.30;99.90
24410;DHT22;12543;53.364;-1.504;2023-04-16T01:43:12;9.30;99.90
24410;DHT22;12543;53.364;-1.504;2023-04-16T01:45:39;9.30;99.90
24410;DHT22;12543;53.364;-1.504;2023-04-16T01:48:06;9.30;99.90
24410;DHT22;12543;53.364;-1.504;2023-04-16T01:50:33;9.30;99.90
24410;DHT22;12543;53.364;-1.504;2023-04-16T01:53:00;9.30;99.90
24410;DHT22;12543;53.364;-1.504;2023-04-16T01:55:31;9.30;99.90
24410;DHT22;12543;53.364;-1.504;2023-04-16T01:57:59;9.30;99.90
24410;DHT22;12543;53.364;-1.504;2023-04-16T02:00:29;9.30;99.90
24410;DHT22;12543;53.364;-1.504;2023-04-16T02:02:57;9.30;99.90
24410;DHT22;12543;53.364;-1.504;2023-04-16T02:05:26;9.30;99.90
24410;DHT22;12543;53.364;-1.504;2023-04-16T02:07:53;9.20;99.90
24410;DHT22;12543;53.364;-1.504;2023-04-16T02:10:20;9.20;99.90
24410;DHT22;12543;53.364;-1.504;2023-04-16T02:12:48;9.20;99.90
24410;DHT22;12543;53.364;-1.504;2023-04-16T02:15:15;9.20;99.90
24410;DHT22;12543;53.364;-1.504;2023-04-16T02:17:44;9.20;99.90
24410;DHT22;12543;53.364;-1.504;2023-04-16T02:20:12;9.20;99.90
24410;DHT22;12543;53.364;-1.504;2023-04-16T02:22:50;9.20;99.90
24410;DHT22;12543;53.364;-1.504;2023-04-16T02:25:19;9.20;99.90
24410;DHT22;12543;53.364;-1.504;2023-04-16T02:27:46;9.20;99.90
24410;DHT22;12543;53.364;-1.504;2023-04-16T02:30:29;9.20;99.90
24410;DHT22;12543;53.364;-1.504;2023-04-16T02:32:56;9.20;99.90
24410;DHT22;12543;53.364;-1.504;2023-04-16T02:35:24;9.20;99.90
24410;DHT22;12543;53.364;-1.504;2023-04-16T02:37:51;9.20;99.90
24410;DHT22;12543;53.364;-1.504;2023-04-16T02:40:18;9.20;99.90
24410;DHT22;12543;53.364;-1.504;2023-04-16T02:42:44;9.20;99.90
24410;DHT22;12543;53.364;-1.504;2023-04-16T02:45:12;9.20;99.90
24410;DHT22;12543;53.364;-1.504;2023-04-16T02:47:39;9.20;99.90
24410;DHT22;12543;53.364;-1.504;2023-04-16T02:50:07;9.20;99.90
24410;DHT22;12543;53.364;-1.504;2023-04-16T02:52:34;9.20;99.90
24410;DHT22;12543;53.364;-1.504;2023-04-16T02:55:00;9.20;99.90
24410;DHT22;12543;53.364;-1.504;2023-04-16T02:57:27;9.20;99.90
24410;DHT22;12543;53.364;-1.504;2023-04-16T02:59:54;9.20;99.90
24410;DHT22;12543;53.364;-1.504;2023-04-16T03:02:21;9.20;99.90
24410;DHT22;12543;53.364;-1.504;2023-04-16T03:04:48;9.20;99.90
24410;DHT22;12543;53.364;-1.504;2023-04-16T03:07:15;9.30;99.90
24410;DHT22;12543;53.364;-1.504;2023-04-16T03:09:44;9.20;99.90
24410;DHT22;12543;53.364;-1.504;2023-04-16T03:12:11;9.20;99.90
24410;DHT22;12543;53.364;-1.504;2023-04-16T03:14:38;9.20;99.90
24410;DHT22;12543;53.364;-1.504;2023-04-16T03:17:05;9.20;99.90
24410;DHT22;12543;53.364;-1.504;2023-04-16T03:19:32;9.20;99.90
24410;DHT22;12543;53.364;-1.504;2023-04-16T03:21:59;9.20;99.90
24410;DHT22;12543;53.364;-1.504;2023-04-16T03:24:26;9.20;99.90
24410;DHT22;12543;53.364;-1.504;2023-04-16T03:26:55;9.20;99.90
24410;DHT22;12543;53.364;-1.504;2023-04-16T03:29:23;9.20;99.90
24410;DHT22;12543;53.364;-1.504;2023-04-16T03:31:50;9.20;99.90
24410;DHT22;12543;53.364;-1.504;2023-04-16T03:34:17;9.30;99.90
24410;DHT22;12543;53.364;-1.504;2023-04-16T03:36:44;9.20;99.90
24410;DHT22;12543;53.364;-1.504;2023-04-16T03:39:12;9.30;99.90
24410;DHT22;12543;53.364;-1.504;2023-04-16T03:41:39;9.20;99.90
24410;DHT22;12543;53.364;-1.504;2023-04-16T03:44:06;9.30;99.90
24410;DHT22;12543;53.364;-1.504;2023-04-16T03:46:33;9.30;99.90
24410;DHT22;12543;53.364;-1.504;2023-04-16T03:49:01;9.30;99.90
24410;DHT22;12543;53.364;-1.504;2023-04-16T03:51:28;9.30;99.90
24410;DHT22;12543;53.364;-1.504;2023-04-16T03:53:55;9.30;99.90
24410;DHT22;12543;53.364;-1.504;2023-04-16T03:56:23;9.30;99.90
24410;DHT22;12543;53.364;-1.504;2023-04-16T03:58:51;9.30;99.90
24410;DHT22;12543;53.364;-1.504;2023-04-16T04:01:18;9.20;99.90
24410;DHT22;12543;53.364;-1.504;2023-04-16T04:03:45;9.20;99.90
24410;DHT22;12543;53.364;-1.504;2023-04-16T04:06:13;9.20;99.90
24410;DHT22;12543;53.364;-1.504;2023-04-16T04:08:41;9.20;99.90
24410;DHT22;12543;53.364;-1.504;2023-04-16T04:11:08;9.20;99.90
24410;DHT22;12543;53.364;-1.504;2023-04-16T04:13:37;9.20;99.90
24410;DHT22;12543;53.364;-1.504;2023-04-16T04:16:04;9.20;99.90
24410;DHT22;12543;53.364;-1.504;2023-04-16T04:18:32;9.20;99.90
24410;DHT22;12543;53.364;-1.504;2023-04-16T04:20:59;9.20;99.90
24410;DHT22;12543;53.364;-1.504;2023-04-16T04:23:30;9.10;99.90
24410;DHT22;12543;53.364;-1.504;2023-04-16T04:25:57;9.10;99.90
24410;DHT22;12543;53.364;-1.504;2023-04-16T04:28:25;9.10;99.90
24410;DHT22;12543;53.364;-1.504;2023-04-16T04:30:52;9.10;99.90
24410;DHT22;12543;53.364;-1.504;2023-04-16T04:33:19;9.10;99.90
24410;DHT22;12543;53.364;-1.504;2023-04-16T04:35:46;9.10;99.90
24410;DHT22;12543;53.364;-1.504;2023-04-16T04:38:14;9.10;99.90
24410;DHT22;12543;53.364;-1.504;2023-04-16T04:40:49;9.10;99.90
24410;DHT22;12543;53.364;-1.504;2023-04-16T04:43:21;9.10;99.90
24410;DHT22;12543;53.364;-1.504;2023-04-16T04:45:49;9.10;99.90
24410;DHT22;12543;53.364;-1.504;2023-04-16T04:48:16;9.10;99.90
24410;DHT22;12543;53.364;-1.504;2023-04-16T04:50:44;9.10;99.90
24410;DHT22;12543;53.364;-1.504;2023-04-16T04:53:11;9.10;99.90
24410;DHT22;12543;53.364;-1.504;2023-04-16T04:55:40;9.10;99.90
24410;DHT22;12543;53.364;-1.504;2023-04-16T04:58:08;9.10;99.90
24410;DHT22;12543;53.364;-1.504;2023-04-16T05:00:35;9.10;99.90
24410;DHT22;12543;53.364;-1.504;2023-04-16T05:03:03;9.10;99.90
24410;DHT22;12543;53.364;-1.504;2023-04-16T05:05:31;9.20;99.90
24410;DHT22;12543;53.364;-1.504;2023-04-16T05:07:58;9.20;99.90
24410;DHT22;12543;53.364;-1.504;2023-04-16T05:10:25;9.20;99.90
24410;DHT22;12543;53.364;-1.504;2023-04-16T05:12:52;9.20;99.90
24410;DHT22;12543;53.364;-1.504;2023-04-16T05:15:19;9.20;99.90
24410;DHT22;12543;53.364;-1.504;2023-04-16T05:17:46;9.20;99.90
24410;DHT22;12543;53.364;-1.504;2023-04-16T05:20:13;9.20;99.90
24410;DHT22;12543;53.364;-1.504;2023-04-16T05:22:40;9.20;99.90
24410;DHT22;12543;53.364;-1.504;2023-04-16T05:25:07;9.20;99.90
24410;DHT22;12543;53.364;-1.504;2023-04-16T05:27:34;9.30;99.90
24410;DHT22;12543;53.364;-1.504;2023-04-16T05:30:02;9.30;99.90
24410;DHT22;12543;53.364;-1.504;2023-04-16T05:32:29;9.30;99.90
24410;DHT22;12543;53.364;-1.504;2023-04-16T05:34:56;9.30;99.90
24410;DHT22;12543;53.364;-1.504;2023-04-16T05:37:23;9.30;99.90
24410;DHT22;12543;53.364;-1.504;2023-04-16T05:39:49;9.30;99.90
24410;DHT22;12543;53.364;-1.504;2023-04-16T05:42:16;9.30;99.90
24410;DHT22;12543;53.364;-1.504;2023-04-16T05:44:43;9.30;99.90
24410;DHT22;12543;53.364;-1.504;2023-04-16T05:47:10;9.30;99.90
24410;DHT22;12543;53.364;-1.504;2023-04-16T05:49:37;9.30;99.90
24410;DHT22;12543;53.364;-1.504;2023-04-16T05:52:04;9.30;99.90
24410;DHT22;12543;53.364;-1.504;2023-04-16T05:54:31;9.30;99.90
24410;DHT22;12543;53.364;-1.504;2023-04-16T05:56:59;9.30;99.90
24410;DHT22;12543;53.364;-1.504;2023-04-16T05:59:26;9.30;99.90
24410;DHT22;12543;53.364;-1.504;2023-04-16T06:01:55;9.30;99.90
24410;DHT22;12543;53.364;-1.504;2023-04-16T06:04:22;9.30;99.90
24410;DHT22;12543;53.364;-1.504;2023-04-16T06:06:49;9.30;99.90
24410;DHT22;12543;53.364;-1.504;2023-04-16T06:09:16;9.30;99.90
24410;DHT22;12543;53.364;-1.504;2023-04-16T06:11:44;9.30;99.90
24410;DHT22;12543;53.364;-1.504;2023-04-16T06:14:11;9.30;99.90
24410;DHT22;12543;53.364;-1.504;2023-04-16T06:16:38;9.30;99.90
24410;DHT22;12543;53.364;-1.504;2023-04-16T06:19:05;9.40;99.90
24410;DHT22;12543;53.364;-1.504;2023-04-16T06:21:32;9.40;99.90
24410;DHT22;12543;53.364;-1.504;2023-04-16T06:23:59;9.40;99.90
24410;DHT22;12543;53.364;-1.504;2023-04-16T06:26:26;9.40;99.90
24410;DHT22;12543;53.364;-1.504;2023-04-16T06:28:53;9.40;99.90
24410;DHT22;12543;53.364;-1.504;2023-04-16T06:31:20;9.40;99.90
24410;DHT22;12543;53.364;-1.504;2023-04-16T06:33:47;9.50;99.90
24410;DHT22;12543;53.364;-1.504;2023-04-16T06:36:14;9.50;99.90
24410;DHT22;12543;53.364;-1.504;2023-04-16T06:38:43;9.50;99.90
24410;DHT22;12543;53.364;-1.504;2023-04-16T06:41:10;9.50;99.90
24410;DHT22;12543;53.364;-1.504;2023-04-16T06:43:37;9.60;99.90
24410;DHT22;12543;53.364;-1.504;2023-04-16T06:46:04;9.60;99.90
24410;DHT22;12543;53.364;-1.504;2023-04-16T06:48:31;9.70;99.90
24410;DHT22;12543;53.364;-1.504;2023-04-16T06:50:58;9.80;99.90
24410;DHT22;12543;53.364;-1.504;2023-04-16T06:53:25;9.80;99.90
24410;DHT22;12543;53.364;-1.504;2023-04-16T06:55:52;9.90;99.90
24410;DHT22;12543;53.364;-1.504;2023-04-16T07:00:48;10.00;99.90
24410;DHT22;12543;53.364;-1.504;2023-04-16T07:03:15;10.10;99.90
24410;DHT22;12543;53.364;-1.504;2023-04-16T07:05:42;10.10;99.90
24410;DHT22;12543;53.364;-1.504;2023-04-16T07:08:09;10.10;99.90
24410;DHT22;12543;53.364;-1.504;2023-04-16T07:10:36;10.20;99.90
24410;DHT22;12543;53.364;-1.504;2023-04-16T07:13:04;10.20;99.90
24410;DHT22;12543;53.364;-1.504;2023-04-16T07:15:31;10.30;99.90
24410;DHT22;12543;53.364;-1.504;2023-04-16T07:17:58;10.30;99.90
24410;DHT22;12543;53.364;-1.504;2023-04-16T07:20:25;10.40;99.90
24410;DHT22;12543;53.364;-1.504;2023-04-16T07:22:52;10.40;99.90
24410;DHT22;12543;53.364;-1.504;2023-04-16T07:25:19;10.40;99.90
24410;DHT22;12543;53.364;-1.504;2023-04-16T07:27:46;10.50;99.90
24410;DHT22;12543;53.364;-1.504;2023-04-16T07:30:13;10.50;99.90
24410;DHT22;12543;53.364;-1.504;2023-04-16T07:32:40;10.50;99.90
24410;DHT22;12543;53.364;-1.504;2023-04-16T07:35:07;10.50;99.90
24410;DHT22;12543;53.364;-1.504;2023-04-16T07:37:34;10.50;99.90
24410;DHT22;12543;53.364;-1.504;2023-04-16T07:40:01;10.50;99.90
24410;DHT22;12543;53.364;-1.504;2023-04-16T07:42:28;10.50;99.90
24410;DHT22;12543;53.364;-1.504;2023-04-16T07:44:55;10.50;99.90
24410;DHT22;12543;53.364;-1.504;2023-04-16T07:47:22;10.50;99.90
24410;DHT22;12543;53.364;-1.504;2023-04-16T07:49:49;10.50;99.90
24410;DHT22;12543;53.364;-1.504;2023-04-16T07:52:16;10.50;99.90
24410;DHT22;12543;53.364;-1.504;2023-04-16T07:54:43;10.60;99.90
24410;DHT22;12543;53.364;-1.504;2023-04-16T07:57:10;10.70;99.90
24410;DHT22;12543;53.364;-1.504;2023-04-16T07:59:37;10.70;99.90
24410;DHT22;12543;53.364;-1.504;2023-04-16T08:02:04;10.70;99.90
24410;DHT22;12543;53.364;-1.504;2023-04-16T08:04:32;10.80;99.90
24410;DHT22;12543;53.364;-1.504;2023-04-16T08:06:59;10.70;99.90
24410;DHT22;12543;53.364;-1.504;2023-04-16T08:09:26;10.80;99.90
24410;DHT22;12543;53.364;-1.504;2023-04-16T08:11:54;10.80;99.90
24410;DHT22;12543;53.364;-1.504;2023-04-16T08:14:21;10.80;99.90
24410;DHT22;12543;53.364;-1.504;2023-04-16T08:16:48;10.70;99.90
24410;DHT22;12543;53.364;-1.504;2023-04-16T08:19:16;10.70;99.90
24410;DHT22;12543;53.364;-1.504;2023-04-16T08:21:43;10.70;99.90
24410;DHT22;12543;53.364;-1.504;2023-04-16T08:24:10;10.70;99.90
24410;DHT22;12543;53.364;-1.504;2023-04-16T08:26:37;10.60;99.90
24410;DHT22;12543;53.364;-1.504;2023-04-16T08:29:08;10.60;99.90
24410;DHT22;12543;53.364;-1.504;2023-04-16T08:31:36;10.50;99.90
24410;DHT22;12543;53.364;-1.504;2023-04-16T08:34:03;10.60;99.90
24410;DHT22;12543;53.364;-1.504;2023-04-16T08:36:30;10.60;99.90
24410;DHT22;12543;53.364;-1.504;2023-04-16T08:38:57;10.60;99.90
24410;DHT22;12543;53.364;-1.504;2023-04-16T08:41:23;10.70;99.90
24410;DHT22;12543;53.364;-1.504;2023-04-16T08:46:19;10.70;99.90
24410;DHT22;12543;53.364;-1.504;2023-04-16T08:48:48;10.80;99.90
24410;DHT22;12543;53.364;-1.504;2023-04-16T08:51:18;10.70;99.90
24410;DHT22;12543;53.364;-1.504;2023-04-16T08:53:51;10.70;99.90
24410;DHT22;12543;53.364;-1.504;2023-04-16T08:56:20;10.70;99.90
24410;DHT22;12543;53.364;-1.504;2023-04-16T08:58:47;10.70;99.90
24410;DHT22;12543;53.364;-1.504;2023-04-16T09:01:18;10.80;99.90
24410;DHT22;12543;53.364;-1.504;2023-04-16T09:03:46;10.80;99.90
24410;DHT22;12543;53.364;-1.504;2023-04-16T09:06:14;10.90;99.90
24410;DHT22;12543;53.364;-1.504;2023-04-16T09:08:43;10.90;99.90
24410;DHT22;12543;53.364;-1.504;2023-04-16T09:11:11;11.00;99.90
24410;DHT22;12543;53.364;-1.504;2023-04-16T09:13:38;11.10;99.90
24410;DHT22;12543;53.364;-1.504;2023-04-16T09:16:06;11.10;99.90
24410;DHT22;12543;53.364;-1.504;2023-04-16T09:18:33;11.20;99.90
24410;DHT22;12543;53.364;-1.504;2023-04-16T09:21:00;11.30;99.90
24410;DHT22;12543;53.364;-1.504;2023-04-16T09:23:28;11.40;99.90
24410;DHT22;12543;53.364;-1.504;2023-04-16T09:25:56;11.50;99.90
24410;DHT22;12543;53.364;-1.504;2023-04-16T09:31:13;11.60;99.90
24410;DHT22;12543;53.364;-1.504;2023-04-16T09:33:41;11.70;99.90
24410;DHT22;12543;53.364;-1.504;2023-04-16T09:36:09;11.70;99.90
24410;DHT22;12543;53.364;-1.504;2023-04-16T09:38:49;11.70;99.90
24410;DHT22;12543;53.364;-1.504;2023-04-16T09:41:17;11.70;99.90
24410;DHT22;12543;53.364;-1.504;2023-04-16T09:43:57;11.80;99.90
24410;DHT22;12543;53.364;-1.504;2023-04-16T09:46:31;11.70;99.90
24410;DHT22;12543;53.364;-1.504;2023-04-16T09:49:09;11.80;99.90
24410;DHT22;12543;53.364;-1.504;2023-04-16T09:51:37;11.70;99.90
24410;DHT22;12543;53.364;-1.504;2023-04-16T09:54:04;11.70;99.90
24410;DHT22;12543;53.364;-1.504;2023-04-16T09:56:31;11.70;99.90
24410;DHT22;12543;53.364;-1.504;2023-04-16T09:58:58;11.80;99.90
24410;DHT22;12543;53.364;-1.504;2023-04-16T10:01:26;11.80;99.90
24410;DHT22;12543;53.364;-1.504;2023-04-16T10:03:53;11.90;99.90
24410;DHT22;12543;53.364;-1.504;2023-04-16T10:06:22;11.90;99.90
24410;DHT22;12543;53.364;-1.504;2023-04-16T10:08:51;11.80;99.90
24410;DHT22;12543;53.364;-1.504;2023-04-16T10:11:19;11.90;99.90
24410;DHT22;12543;53.364;-1.504;2023-04-16T10:13:47;12.00;99.90
24410;DHT22;12543;53.364;-1.504;2023-04-16T10:16:14;12.10;99.90
24410;DHT22;12543;53.364;-1.504;2023-04-16T10:18:42;12.30;99.90
24410;DHT22;12543;53.364;-1.504;2023-04-16T10:21:09;12.40;99.90
24410;DHT22;12543;53.364;-1.504;2023-04-16T10:23:41;12.60;99.90
24410;DHT22;12543;53.364;-1.504;2023-04-16T10:26:09;12.70;99.90
24410;DHT22;12543;53.364;-1.504;2023-04-16T10:28:36;12.70;99.90
24410;DHT22;12543;53.364;-1.504;2023-04-16T10:31:07;12.70;99.90
24410;DHT22;12543;53.364;-1.504;2023-04-16T10:33:35;12.70;99.90
24410;DHT22;12543;53.364;-1.504;2023-04-16T10:36:35;12.60;99.90
24410;DHT22;12543;53.364;-1.504;2023-04-16T10:38:58;12.60;99.90
24410;DHT22;12543;53.364;-1.504;2023-04-16T10:41:26;12.60;99.90
24410;DHT22;12543;53.364;-1.504;2023-04-16T10:44:02;12.60;99.90
24410;DHT22;12543;53.364;-1.504;2023-04-16T10:49:02;12.70;99.90
24410;DHT22;12543;53.364;-1.504;2023-04-16T10:51:38;12.60;99.90
24410;DHT22;12543;53.364;-1.504;2023-04-16T10:56:35;12.60;99.90
24410;DHT22;12543;53.364;-1.504;2023-04-16T10:59:06;12.60;99.90
24410;DHT22;12543;53.364;-1.504;2023-04-16T11:01:34;12.50;99.90
24410;DHT22;12543;53.364;-1.504;2023-04-16T11:14:46;12.40;99.90
24410;DHT22;12543;53.364;-1.504;2023-04-16T11:17:13;12.40;99.90
24410;DHT22;12543;53.364;-1.504;2023-04-16T11:19:41;12.40;99.90
24410;DHT22;12543;53.364;-1.504;2023-04-16T11:22:08;12.50;99.90
24410;DHT22;12543;53.364;-1.504;2023-04-16T11:24:37;12.50;99.90
24410;DHT22;12543;53.364;-1.504;2023-04-16T11:27:06;12.60;99.90
24410;DHT22;12543;53.364;-1.504;2023-04-16T11:29:33;12.70;99.90
24410;DHT22;12543;53.364;-1.504;2023-04-16T11:32:00;12.90;99.90
24410;DHT22;12543;53.364;-1.504;2023-04-16T11:34:28;13.00;99.90
24410;DHT22;12543;53.364;-1.504;2023-04-16T11:36:55;13.20;99.90
24410;DHT22;12543;53.364;-1.504;2023-04-16T11:39:22;13.40;99.90
24410;DHT22;12543;53.364;-1.504;2023-04-16T11:41:50;13.70;99.90
24410;DHT22;12543;53.364;-1.504;2023-04-16T11:44:22;13.90;99.90
24410;DHT22;12543;53.364;-1.504;2023-04-16T11:46:50;14.10;99.90
24410;DHT22;12543;53.364;-1.504;2023-04-16T11:49:27;14.20;99.90
24410;DHT22;12543;53.364;-1.504;2023-04-16T11:51:54;14.40;99.90
24410;DHT22;12543;53.364;-1.504;2023-04-16T11:54:22;14.50;99.90
24410;DHT22;12543;53.364;-1.504;2023-04-16T11:56:50;14.50;99.90
24410;DHT22;12543;53.364;-1.504;2023-04-16T11:59:18;14.50;99.90
24410;DHT22;12543;53.364;-1.504;2023-04-16T12:01:47;14.60;99.90
24410;DHT22;12543;53.364;-1.504;2023-04-16T12:04:15;14.60;99.90
24410;DHT22;12543;53.364;-1.504;2023-04-16T12:09:29;14.40;99.90
24410;DHT22;12543;53.364;-1.504;2023-04-16T12:11:56;14.30;99.90
24410;DHT22;12543;53.364;-1.504;2023-04-16T12:14:23;14.30;99.90
24410;DHT22;12543;53.364;-1.504;2023-04-16T12:16:50;14.20;99.90
24410;DHT22;12543;53.364;-1.504;2023-04-16T12:19:19;14.10;99.90
24410;DHT22;12543;53.364;-1.504;2023-04-16T12:21:47;14.00;99.90
24410;DHT22;12543;53.364;-1.504;2023-04-16T12:24:15;13.90;99.90
24410;DHT22;12543;53.364;-1.504;2023-04-16T12:26:43;13.80;99.90
24410;DHT22;12543;53.364;-1.504;2023-04-16T12:29:21;13.70;99.90
24410;DHT22;12543;53.364;-1.504;2023-04-16T12:31:48;13.60;99.90
24410;DHT22;12543;53.364;-1.504;2023-04-16T12:34:16;13.60;99.90
24410;DHT22;12543;53.364;-1.504;2023-04-16T12:36:43;13.50;99.90
24410;DHT22;12543;53.364;-1.504;2023-04-16T12:39:10;13.50;99.90
24410;DHT22;12543;53.364;-1.504;2023-04-16T12:41:38;13.40;99.90
24410;DHT22;12543;53.364;-1.504;2023-04-16T12:44:09;13.30;99.90
24410;DHT22;12543;53.364;-1.504;2023-04-16T12:46:40;13.30;99.90
24410;DHT22;12543;53.364;-1.504;2023-04-16T12:49:07;13.20;99.90
24410;DHT22;12543;53.364;-1.504;2023-04-16T12:51:35;13.10;99.90
24410;DHT22;12543;53.364;-1.504;2023-04-16T12:54:03;13.10;99.90
24410;DHT22;12543;53.364;-1.504;2023-04-16T12:56:31;13.00;99.90
24410;DHT22;12543;53.364;-1.504;2023-04-16T12:58:58;13.00;99.90
24410;DHT22;12543;53.364;-1.504;2023-04-16T13:01:25;12.90;99.90
24410;DHT22;12543;53.364;-1.504;2023-04-16T13:03:53;12.90;99.90
24410;DHT22;12543;53.364;-1.504;2023-04-16T13:06:20;12.80;99.90
24410;DHT22;12543;53.364;-1.504;2023-04-16T13:08:47;12.80;99.90
24410;DHT22;12543;53.364;-1.504;2023-04-16T13:11:14;12.80;99.90
24410;DHT22;12543;53.364;-1.504;2023-04-16T13:13:41;12.80;99.90
24410;DHT22;12543;53.364;-1.504;2023-04-16T13:16:08;12.80;99.90
24410;DHT22;12543;53.364;-1.504;2023-04-16T13:18:35;12.80;99.90
24410;DHT22;12543;53.364;-1.504;2023-04-16T13:21:03;12.80;99.90
24410;DHT22;12543;53.364;-1.504;2023-04-16T13:23:30;12.80;99.90
24410;DHT22;12543;53.364;-1.504;2023-04-16T13:25:57;12.80;99.90
24410;DHT22;12543;53.364;-1.504;2023-04-16T13:28:24;12.70;99.90
24410;DHT22;12543;53.364;-1.504;2023-04-16T13:30:51;12.70;99.90
24410;DHT22;12543;53.364;-1.504;2023-04-16T13:33:19;12.60;99.90
24410;DHT22;12543;53.364;-1.504;2023-04-16T13:35:47;12.70;99.90
24410;DHT22;12543;53.364;-1.504;2023-04-16T13:38:14;12.60;99.90
24410;DHT22;12543;53.364;-1.504;2023-04-16T13:40:41;12.60;99.90
24410;DHT22;12543;53.364;-1.504;2023-04-16T13:43:08;12.60;99.90
24410;DHT22;12543;53.364;-1.504;2023-04-16T13:45:36;12.70;99.90
24410;DHT22;12543;53.364;-1.504;2023-04-16T13:48:03;12.60;99.90
24410;DHT22;12543;53.364;-1.504;2023-04-16T13:50:31;12.60;99.90
24410;DHT22;12543;53.364;-1.504;2023-04-16T13:52:58;12.60;99.90
24410;DHT22;12543;53.364;-1.504;2023-04-16T13:55:24;12.50;99.90
24410;DHT22;12543;53.364;-1.504;2023-04-16T13:57:52;12.50;99.90
24410;DHT22;12543;53.364;-1.504;2023-04-16T14:00:19;12.50;99.90
24410;DHT22;12543;53.364;-1.504;2023-04-16T14:02:46;12.50;99.90
24410;DHT22;12543;53.364;-1.504;2023-04-16T14:05:14;12.40;99.90
24410;DHT22;12543;53.364;-1.504;2023-04-16T14:07:41;12.40;99.90
24410;DHT22;12543;53.364;-1.504;2023-04-16T14:10:08;12.40;99.90
24410;DHT22;12543;53.364;-1.504;2023-04-16T14:12:36;12.40;99.90
24410;DHT22;12543;53.364;-1.504;2023-04-16T14:15:06;12.30;99.90
24410;DHT22;12543;53.364;-1.504;2023-04-16T14:17:35;12.30;99.90
24410;DHT22;12543;53.364;-1.504;2023-04-16T14:20:05;12.30;99.90
24410;DHT22;12543;53.364;-1.504;2023-04-16T14:22:32;12.20;99.90
24410;DHT22;12543;53.364;-1.504;2023-04-16T14:24:59;12.20;99.90
24410;DHT22;12543;53.364;-1.504;2023-04-16T14:27:27;12.20;99.90
24410;DHT22;12543;53.364;-1.504;2023-04-16T14:29:54;12.20;99.90
24410;DHT22;12543;53.364;-1.504;2023-04-16T14:32:21;12.20;99.90
24410;DHT22;12543;53.364;-1.504;2023-04-16T14:34:48;12.20;99.90
24410;DHT22;12543;53.364;-1.504;2023-04-16T14:37:16;12.20;99.90
24410;DHT22;12543;53.364;-1.504;2023-04-16T14:39:43;12.30;99.90
24410;DHT22;12543;53.364;-1.504;2023-04-16T14:42:10;12.30;99.90
24410;DHT22;12543;53.364;-1.504;2023-04-16T14:44:37;12.30;99.90
24410;DHT22;12543;53.364;-1.504;2023-04-16T14:47:04;12.30;99.90
24410;DHT22;12543;53.364;-1.504;2023-04-16T14:49:31;12.40;99.90
24410;DHT22;12543;53.364;-1.504;2023-04-16T14:51:59;12.40;99.90
24410;DHT22;12543;53.364;-1.504;2023-04-16T14:54:27;12.40;99.90
24410;DHT22;12543;53.364;-1.504;2023-04-16T14:56:54;12.50;99.90
24410;DHT22;12543;53.364;-1.504;2023-04-16T14:59:22;12.50;99.90
24410;DHT22;12543;53.364;-1.504;2023-04-16T15:01:49;12.50;99.90
24410;DHT22;12543;53.364;-1.504;2023-04-16T15:04:17;12.40;99.90
24410;DHT22;12543;53.364;-1.504;2023-04-16T15:06:44;12.50;99.90
24410;DHT22;12543;53.364;-1.504;2023-04-16T15:09:12;12.50;99.90
24410;DHT22;12543;53.364;-1.504;2023-04-16T15:11:39;12.50;99.90
24410;DHT22;12543;53.364;-1.504;2023-04-16T15:14:06;12.50;99.90
24410;DHT22;12543;53.364;-1.504;2023-04-16T15:16:33;12.50;99.90
24410;DHT22;12543;53.364;-1.504;2023-04-16T15:19:01;12.50;99.90
24410;DHT22;12543;53.364;-1.504;2023-04-16T15:21:30;12.50;99.90
24410;DHT22;12543;53.364;-1.504;2023-04-16T15:23:57;12.50;99.90
24410;DHT22;12543;53.364;-1.504;2023-04-16T15:26:24;12.50;99.90
24410;DHT22;12543;53.364;-1.504;2023-04-16T15:28:51;12.50;99.90
24410;DHT22;12543;53.364;-1.504;2023-04-16T15:31:18;12.50;99.90
24410;DHT22;12543;53.364;-1.504;2023-04-16T15:33:47;12.50;99.90
24410;DHT22;12543;53.364;-1.504;2023-04-16T15:36:14;12.50;99.90
24410;DHT22;12543;53.364;-1.504;2023-04-16T15:38:41;12.40;99.90
24410;DHT22;12543;53.364;-1.504;2023-04-16T15:41:09;12.50;99.90
24410;DHT22;12543;53.364;-1.504;2023-04-16T15:43:36;12.40;99.90
24410;DHT22;12543;53.364;-1.504;2023-04-16T15:46:04;12.40;99.90
24410;DHT22;12543;53.364;-1.504;2023-04-16T15:48:31;12.40;99.90
24410;DHT22;12543;53.364;-1.504;2023-04-16T15:50:58;12.40;99.90
24410;DHT22;12543;53.364;-1.504;2023-04-16T15:53:25;12.40;99.90